sensor_id;sensor_type;location;lat;lon;timestamp;P1;durP1;ratioP1;P2;durP2;ratioP2
74122;SDS011;62474;50.780;15.074;2023-01-19T06:35:55;11.05;;;4.85;;
74122;SDS011;62474;50.780;15.074;2023-01-19T06:38:21;17.10;;;6.95;;
74122;SDS011;62474;50.780;15.074;2023-01-19T06:40:51;23.30;;;8.87;;
74122;SDS011;62474;50.780;15.074;2023-01-19T06:43:18;25.67;;;8.80;;
74122;SDS011;62474;50.780;15.074;2023-01-19T06:45:44;27.00;;;9.30;;
74122;SDS011;62474;50.780;15.074;2023-01-19T06:48:10;25.30;;;9.70;;
74122;SDS011;62474;50.780;15.074;2023-01-19T06:50:36;31.25;;;10.75;;
74122;SDS011;62474;50.780;15.074;2023-01-19T06:53:02;27.10;;;10.63;;
74122;SDS011;62474;50.780;15.074;2023-01-19T06:55:28;28.98;;;12.15;;
74122;SDS011;62474;50.780;15.074;2023-01-19T06:57:55;29.33;;;13.27;;
74122;SDS011;62474;50.780;15.074;2023-01-19T07:00:22;23.15;;;10.80;;
74122;SDS011;62474;50.780;15.074;2023-01-19T07:02:48;26.30;;;10.35;;
74122;SDS011;62474;50.780;15.074;2023-01-19T07:05:14;27.30;;;9.63;;
74122;SDS011;62474;50.780;15.074;2023-01-19T08:26:21;16.27;;;6.03;;
74122;SDS011;62474;50.780;15.074;2023-01-19T08:28:51;14.33;;;6.47;;
74122;SDS011;62474;50.780;15.074;2023-01-19T08:31:17;17.75;;;7.53;;
74122;SDS011;62474;50.780;15.074;2023-01-19T08:33:43;16.10;;;7.07;;
74122;SDS011;62474;50.780;15.074;2023-01-19T08:36:09;17.63;;;8.30;;
74122;SDS011;62474;50.780;15.074;2023-01-19T08:38:35;19.35;;;7.07;;
74122;SDS011;62474;50.780;15.074;2023-01-19T08:41:04;14.13;;;7.60;;
74122;SDS011;62474;50.780;15.074;2023-01-19T08:43:30;12.95;;;6.57;;
74122;SDS011;62474;50.780;15.074;2023-01-19T08:45:56;15.05;;;7.65;;
74122;SDS011;62474;50.780;15.074;2023-01-19T08:48:22;12.55;;;6.07;;
74122;SDS011;62474;50.780;15.074;2023-01-19T08:50:49;10.27;;;4.85;;
74122;SDS011;62474;50.780;15.074;2023-01-19T08:53:15;9.03;;;4.63;;
74122;SDS011;62474;50.780;15.074;2023-01-19T08:55:41;10.57;;;4.90;;
74122;SDS011;62474;50.780;15.074;2023-01-19T08:58:08;9.77;;;4.00;;
74122;SDS011;62474;50.780;15.074;2023-01-19T09:00:34;9.77;;;4.57;;
74122;SDS011;62474;50.780;15.074;2023-01-19T09:03:06;10.73;;;4.82;;
74122;SDS011;62474;50.780;15.074;2023-01-19T09:05:34;10.17;;;5.10;;
74122;SDS011;62474;50.780;15.074;2023-01-19T09:08:03;12.23;;;5.72;;
74122;SDS011;62474;50.780;15.074;2023-01-19T09:10:30;12.52;;;5.82;;
74122;SDS011;62474;50.780;15.074;2023-01-19T09:13:00;13.93;;;6.47;;
74122;SDS011;62474;50.780;15.074;2023-01-19T09:15:28;12.52;;;6.30;;
74122;SDS011;62474;50.780;15.074;2023-01-19T09:17:54;12.17;;;6.13;;
74122;SDS011;62474;50.780;15.074;2023-01-19T09:20:20;13.65;;;6.20;;
74122;SDS011;62474;50.780;15.074;2023-01-19T09:22:47;11.63;;;6.38;;
74122;SDS011;62474;50.780;15.074;2023-01-19T09:25:13;11.15;;;5.93;;
74122;SDS011;62474;50.780;15.074;2023-01-19T09:27:39;12.57;;;6.60;;
74122;SDS011;62474;50.780;15.074;2023-01-19T09:30:05;11.60;;;6.03;;
74122;SDS011;62474;50.780;15.074;2023-01-19T09:32:35;10.75;;;5.57;;
74122;SDS011;62474;50.780;15.074;2023-01-19T09:35:01;11.25;;;6.22;;
74122;SDS011;62474;50.780;15.074;2023-01-19T09:37:27;9.55;;;5.30;;
74122;SDS011;62474;50.780;15.074;2023-01-19T09:39:53;12.40;;;6.72;;
74122;SDS011;62474;50.780;15.074;2023-01-19T09:42:25;11.77;;;6.47;;
74122;SDS011;62474;50.780;15.074;2023-01-19T09:44:55;11.45;;;6.93;;
74122;SDS011;62474;50.780;15.074;2023-01-19T09:47:24;12.70;;;6.72;;
74122;SDS011;62474;50.780;15.074;2023-01-19T09:49:52;13.55;;;7.38;;
74122;SDS011;62474;50.780;15.074;2023-01-19T09:52:22;11.68;;;6.25;;
74122;SDS011;62474;50.780;15.074;2023-01-19T09:54:49;12.47;;;7.13;;
74122;SDS011;62474;50.780;15.074;2023-01-19T09:57:17;14.93;;;8.48;;
74122;SDS011;62474;50.780;15.074;2023-01-19T09:59:43;13.48;;;7.15;;
74122;SDS011;62474;50.780;15.074;2023-01-19T10:04:58;12.30;;;5.80;;
74122;SDS011;62474;50.780;15.074;2023-01-19T10:07:41;13.40;;;6.70;;
74122;SDS011;62474;50.780;15.074;2023-01-19T10:10:23;12.60;;;6.13;;
74122;SDS011;62474;50.780;15.074;2023-01-19T10:18:23;12.65;;;6.05;;
74122;SDS011;62474;50.780;15.074;2023-01-19T10:21:07;12.23;;;6.07;;
74122;SDS011;62474;50.780;15.074;2023-01-19T10:23:39;10.23;;;5.20;;
74122;SDS011;62474;50.780;15.074;2023-01-19T10:26:25;11.32;;;5.90;;
74122;SDS011;62474;50.780;15.074;2023-01-19T10:28:53;10.43;;;5.30;;
74122;SDS011;62474;50.780;15.074;2023-01-19T10:31:21;10.88;;;5.50;;
74122;SDS011;62474;50.780;15.074;2023-01-19T10:33:48;11.60;;;5.50;;
74122;SDS011;62474;50.780;15.074;2023-01-19T10:36:16;11.77;;;6.47;;
74122;SDS011;62474;50.780;15.074;2023-01-19T10:38:42;11.40;;;5.57;;
74122;SDS011;62474;50.780;15.074;2023-01-19T10:41:10;9.80;;;5.82;;
74122;SDS011;62474;50.780;15.074;2023-01-19T10:43:42;10.48;;;5.72;;
74122;SDS011;62474;50.780;15.074;2023-01-19T10:48:46;11.57;;;5.60;;
74122;SDS011;62474;50.780;15.074;2023-01-19T10:51:12;9.35;;;5.18;;
74122;SDS011;62474;50.780;15.074;2023-01-19T10:53:39;9.82;;;5.95;;
74122;SDS011;62474;50.780;15.074;2023-01-19T10:56:24;10.30;;;5.90;;
74122;SDS011;62474;50.780;15.074;2023-01-19T10:58:50;11.67;;;6.67;;
74122;SDS011;62474;50.780;15.074;2023-01-19T11:01:17;11.18;;;6.63;;
74122;SDS011;62474;50.780;15.074;2023-01-19T11:03:44;9.90;;;6.47;;
74122;SDS011;62474;50.780;15.074;2023-01-19T11:06:21;10.45;;;6.10;;
74122;SDS011;62474;50.780;15.074;2023-01-19T11:08:48;13.60;;;6.63;;
74122;SDS011;62474;50.780;15.074;2023-01-19T11:11:20;10.63;;;6.30;;
74122;SDS011;62474;50.780;15.074;2023-01-19T11:14:07;10.38;;;6.45;;
74122;SDS011;62474;50.780;15.074;2023-01-19T11:16:34;10.50;;;5.82;;
74122;SDS011;62474;50.780;15.074;2023-01-19T11:19:02;11.02;;;6.53;;
74122;SDS011;62474;50.780;15.074;2023-01-19T11:21:29;14.18;;;6.90;;
74122;SDS011;62474;50.780;15.074;2023-01-19T11:23:56;12.67;;;6.77;;
74122;SDS011;62474;50.780;15.074;2023-01-19T11:28:49;12.55;;;6.40;;
74122;SDS011;62474;50.780;15.074;2023-01-19T11:31:18;11.10;;;6.38;;
74122;SDS011;62474;50.780;15.074;2023-01-19T11:33:48;11.10;;;6.97;;
74122;SDS011;62474;50.780;15.074;2023-01-19T11:38:41;10.68;;;5.25;;
74122;SDS011;62474;50.780;15.074;2023-01-19T11:41:16;7.60;;;4.07;;
74122;SDS011;62474;50.780;15.074;2023-01-19T11:43:42;7.68;;;4.20;;
74122;SDS011;62474;50.780;15.074;2023-01-19T11:46:10;8.60;;;4.70;;
74122;SDS011;62474;50.780;15.074;2023-01-19T11:48:40;9.20;;;5.13;;
74122;SDS011;62474;50.780;15.074;2023-01-19T11:51:09;9.88;;;5.05;;
74122;SDS011;62474;50.780;15.074;2023-01-19T11:53:38;9.73;;;4.78;;
74122;SDS011;62474;50.780;15.074;2023-01-19T11:56:08;8.45;;;4.22;;
74122;SDS011;62474;50.780;15.074;2023-01-19T11:58:39;9.65;;;4.88;;
74122;SDS011;62474;50.780;15.074;2023-01-19T12:01:09;11.17;;;5.03;;
74122;SDS011;62474;50.780;15.074;2023-01-19T12:03:43;9.18;;;4.45;;
74122;SDS011;62474;50.780;15.074;2023-01-19T12:08:44;9.10;;;4.72;;
74122;SDS011;62474;50.780;15.074;2023-01-19T12:11:14;7.53;;;3.83;;
74122;SDS011;62474;50.780;15.074;2023-01-19T12:13:40;10.60;;;4.90;;
74122;SDS011;62474;50.780;15.074;2023-01-19T12:16:12;8.32;;;4.55;;
74122;SDS011;62474;50.780;15.074;2023-01-19T12:18:55;9.35;;;4.95;;
74122;SDS011;62474;50.780;15.074;2023-01-19T12:21:23;10.02;;;4.30;;
74122;SDS011;62474;50.780;15.074;2023-01-19T12:28:42;9.65;;;4.43;;
74122;SDS011;62474;50.780;15.074;2023-01-19T12:31:09;9.27;;;4.57;;
74122;SDS011;62474;50.780;15.074;2023-01-19T12:33:39;12.02;;;5.28;;
74122;SDS011;62474;50.780;15.074;2023-01-19T12:39:00;10.10;;;4.13;;
74122;SDS011;62474;50.780;15.074;2023-01-19T12:41:27;8.80;;;4.38;;
74122;SDS011;62474;50.780;15.074;2023-01-19T18:01:25;15.67;;;6.77;;
74122;SDS011;62474;50.780;15.074;2023-01-19T18:03:52;16.92;;;6.97;;
74122;SDS011;62474;50.780;15.074;2023-01-19T18:06:18;24.30;;;9.60;;
74122;SDS011;62474;50.780;15.074;2023-01-19T18:08:45;22.02;;;9.38;;
74122;SDS011;62474;50.780;15.074;2023-01-19T18:11:12;21.38;;;9.05;;
74122;SDS011;62474;50.780;15.074;2023-01-19T18:13:40;25.30;;;12.47;;
74122;SDS011;62474;50.780;15.074;2023-01-19T18:16:08;18.65;;;8.48;;
74122;SDS011;62474;50.780;15.074;2023-01-19T18:18:34;28.30;;;12.27;;
74122;SDS011;62474;50.780;15.074;2023-01-19T18:21:01;31.48;;;12.13;;
74122;SDS011;62474;50.780;15.074;2023-01-19T18:23:28;25.90;;;10.60;;
74122;SDS011;62474;50.780;15.074;2023-01-19T18:25:58;29.63;;;12.27;;
74122;SDS011;62474;50.780;15.074;2023-01-19T18:28:24;31.08;;;12.60;;
74122;SDS011;62474;50.780;15.074;2023-01-19T18:30:50;23.08;;;9.57;;
74122;SDS011;62474;50.780;15.074;2023-01-19T18:33:16;27.25;;;11.80;;
74122;SDS011;62474;50.780;15.074;2023-01-19T18:35:42;39.40;;;15.82;;
74122;SDS011;62474;50.780;15.074;2023-01-19T18:38:08;21.83;;;10.17;;
74122;SDS011;62474;50.780;15.074;2023-01-19T18:40:34;29.60;;;12.10;;
74122;SDS011;62474;50.780;15.074;2023-01-19T18:43:00;21.38;;;7.88;;
74122;SDS011;62474;50.780;15.074;2023-01-19T18:45:26;16.35;;;7.97;;
74122;SDS011;62474;50.780;15.074;2023-01-19T18:47:52;18.77;;;7.40;;
74122;SDS011;62474;50.780;15.074;2023-01-19T18:50:18;21.30;;;9.27;;
74122;SDS011;62474;50.780;15.074;2023-01-19T18:52:45;25.73;;;10.35;;
74122;SDS011;62474;50.780;15.074;2023-01-19T18:55:12;21.38;;;9.90;;
74122;SDS011;62474;50.780;15.074;2023-01-19T18:57:38;22.05;;;9.73;;
74122;SDS011;62474;50.780;15.074;2023-01-19T19:00:04;29.42;;;12.50;;
74122;SDS011;62474;50.780;15.074;2023-01-19T19:02:31;23.30;;;9.73;;
74122;SDS011;62474;50.780;15.074;2023-01-19T19:04:57;24.30;;;11.13;;
74122;SDS011;62474;50.780;15.074;2023-01-19T19:07:23;30.02;;;13.43;;
74122;SDS011;62474;50.780;15.074;2023-01-19T19:09:49;26.80;;;12.10;;
74122;SDS011;62474;50.780;15.074;2023-01-19T19:12:15;26.73;;;11.68;;
74122;SDS011;62474;50.780;15.074;2023-01-19T19:14:41;27.10;;;11.50;;
74122;SDS011;62474;50.780;15.074;2023-01-19T19:17:07;19.38;;;9.43;;
74122;SDS011;62474;50.780;15.074;2023-01-19T19:19:33;14.98;;;6.65;;
74122;SDS011;62474;50.780;15.074;2023-01-19T19:21:59;21.30;;;9.30;;
74122;SDS011;62474;50.780;15.074;2023-01-19T19:24:25;17.20;;;8.35;;
74122;SDS011;62474;50.780;15.074;2023-01-19T19:26:51;23.53;;;9.20;;
74122;SDS011;62474;50.780;15.074;2023-01-19T19:29:17;15.50;;;7.40;;
74122;SDS011;62474;50.780;15.074;2023-01-19T19:31:43;15.27;;;7.22;;
74122;SDS011;62474;50.780;15.074;2023-01-19T19:34:10;22.20;;;8.75;;
74122;SDS011;62474;50.780;15.074;2023-01-19T19:36:36;16.27;;;7.57;;
74122;SDS011;62474;50.780;15.074;2023-01-19T19:39:03;27.17;;;13.83;;
74122;SDS011;62474;50.780;15.074;2023-01-19T19:41:29;26.33;;;11.25;;
74122;SDS011;62474;50.780;15.074;2023-01-19T19:43:56;24.92;;;9.80;;
74122;SDS011;62474;50.780;15.074;2023-01-19T19:46:25;18.52;;;8.50;;
74122;SDS011;62474;50.780;15.074;2023-01-19T19:48:52;15.43;;;7.55;;
74122;SDS011;62474;50.780;15.074;2023-01-19T19:51:25;25.40;;;10.33;;
74122;SDS011;62474;50.780;15.074;2023-01-19T19:53:55;25.48;;;11.20;;
74122;SDS011;62474;50.780;15.074;2023-01-19T19:56:23;22.20;;;8.95;;
74122;SDS011;62474;50.780;15.074;2023-01-19T19:58:50;21.30;;;9.65;;
74122;SDS011;62474;50.780;15.074;2023-01-19T20:01:20;22.67;;;10.52;;
74122;SDS011;62474;50.780;15.074;2023-01-19T20:03:46;27.60;;;12.83;;
74122;SDS011;62474;50.780;15.074;2023-01-19T20:06:17;26.83;;;12.77;;
74122;SDS011;62474;50.780;15.074;2023-01-19T20:08:47;26.83;;;13.00;;
74122;SDS011;62474;50.780;15.074;2023-01-19T20:11:14;30.33;;;13.20;;
74122;SDS011;62474;50.780;15.074;2023-01-19T20:13:40;28.55;;;12.85;;
74122;SDS011;62474;50.780;15.074;2023-01-19T20:16:08;32.77;;;14.63;;
74122;SDS011;62474;50.780;15.074;2023-01-19T20:18:35;36.35;;;14.57;;
74122;SDS011;62474;50.780;15.074;2023-01-19T20:21:10;33.97;;;15.07;;
74122;SDS011;62474;50.780;15.074;2023-01-19T20:23:36;31.77;;;15.15;;
74122;SDS011;62474;50.780;15.074;2023-01-19T20:26:03;37.47;;;20.52;;
74122;SDS011;62474;50.780;15.074;2023-01-19T20:28:30;29.43;;;14.33;;
74122;SDS011;62474;50.780;15.074;2023-01-19T20:31:06;21.42;;;10.20;;
74122;SDS011;62474;50.780;15.074;2023-01-19T20:33:32;25.08;;;12.13;;
74122;SDS011;62474;50.780;15.074;2023-01-19T20:35:58;23.08;;;11.50;;
74122;SDS011;62474;50.780;15.074;2023-01-19T20:38:24;27.27;;;14.95;;
74122;SDS011;62474;50.780;15.074;2023-01-19T20:40:51;29.23;;;13.20;;
74122;SDS011;62474;50.780;15.074;2023-01-19T20:43:17;25.05;;;12.60;;
74122;SDS011;62474;50.780;15.074;2023-01-19T20:45:43;21.88;;;10.88;;
74122;SDS011;62474;50.780;15.074;2023-01-19T20:48:09;27.42;;;11.73;;
74122;SDS011;62474;50.780;15.074;2023-01-19T20:50:35;27.50;;;13.15;;
74122;SDS011;62474;50.780;15.074;2023-01-19T20:53:02;26.70;;;12.80;;
74122;SDS011;62474;50.780;15.074;2023-01-19T20:55:28;29.55;;;12.57;;
74122;SDS011;62474;50.780;15.074;2023-01-19T20:57:54;25.77;;;12.57;;
74122;SDS011;62474;50.780;15.074;2023-01-19T21:00:20;27.35;;;13.65;;
74122;SDS011;62474;50.780;15.074;2023-01-19T21:02:46;24.80;;;11.43;;
74122;SDS011;62474;50.780;15.074;2023-01-19T21:05:12;25.83;;;11.73;;
74122;SDS011;62474;50.780;15.074;2023-01-19T21:07:38;20.55;;;9.07;;
74122;SDS011;62474;50.780;15.074;2023-01-19T21:10:04;31.88;;;14.00;;
74122;SDS011;62474;50.780;15.074;2023-01-19T21:12:30;24.73;;;10.75;;
74122;SDS011;62474;50.780;15.074;2023-01-19T21:14:56;21.60;;;9.45;;
74122;SDS011;62474;50.780;15.074;2023-01-19T21:17:22;18.47;;;8.07;;
74122;SDS011;62474;50.780;15.074;2023-01-19T21:19:48;13.32;;;5.35;;
74122;SDS011;62474;50.780;15.074;2023-01-19T21:22:14;21.90;;;9.77;;
74122;SDS011;62474;50.780;15.074;2023-01-19T21:24:40;22.98;;;8.85;;
74122;SDS011;62474;50.780;15.074;2023-01-19T21:27:06;15.30;;;5.65;;
74122;SDS011;62474;50.780;15.074;2023-01-19T21:29:32;22.37;;;7.50;;
74122;SDS011;62474;50.780;15.074;2023-01-19T21:31:59;23.77;;;8.88;;
74122;SDS011;62474;50.780;15.074;2023-01-19T21:34:25;18.65;;;8.60;;
74122;SDS011;62474;50.780;15.074;2023-01-19T21:36:51;24.42;;;9.93;;
74122;SDS011;62474;50.780;15.074;2023-01-19T21:39:17;25.88;;;10.93;;
